createdAt,value
2023-05-10T00:00:42.496Z,58.22
2023-05-10T00:03:09.185Z,58.47
2023-05-10T00:05:36.030Z,59.07
2023-05-10T00:08:04.656Z,60.79
2023-05-10T00:10:38.691Z,61.06
2023-05-10T00:13:05.224Z,63.52
2023-05-10T00:15:31.946Z,64.06
2023-05-10T00:17:58.793Z,67.90
2023-05-10T00:20:26.212Z,68.51
2023-05-10T00:22:52.715Z,69.55
2023-05-10T00:25:26.380Z,69.18
2023-05-10T00:27:53.674Z,67.75
2023-05-10T00:30:27.580Z,64.96
2023-05-10T00:32:54.411Z,65.83
2023-05-10T00:35:22.541Z,67.92
2023-05-10T00:37:49.882Z,66.06
2023-05-10T00:40:16.994Z,68.55
2023-05-10T00:42:44.013Z,67.41
2023-05-10T00:45:18.070Z,66.35
2023-05-10T00:47:46.144Z,64.58
2023-05-10T00:50:12.752Z,63.67
2023-05-10T00:52:39.623Z,64.34
2023-05-10T00:55:06.935Z,63.95
2023-05-10T00:57:35.793Z,62.26
2023-05-10T01:00:02.684Z,64.76
2023-05-10T01:02:31.614Z,65.15
2023-05-10T01:05:02.857Z,64.98
2023-05-10T01:07:29.653Z,65.37
2023-05-10T01:09:56.602Z,66.57
2023-05-10T01:12:23.477Z,66.35
2023-05-10T01:14:50.561Z,64.29
2023-05-10T01:17:17.412Z,68.07
2023-05-10T01:19:46.902Z,67.80
2023-05-10T01:25:05.964Z,67.66
2023-05-10T01:27:32.483Z,65.87
2023-05-10T01:30:14.147Z,67.26
2023-05-10T01:32:41.900Z,68.59
2023-05-10T01:35:08.461Z,68.48
2023-05-10T01:37:42.570Z,68.21
2023-05-10T01:40:11.172Z,68.08
2023-05-10T01:42:38.072Z,69.56
2023-05-10T01:45:04.933Z,69.67
2023-05-10T01:47:32.360Z,67.11
2023-05-10T01:52:41.642Z,67.29
2023-05-10T01:55:08.994Z,67.03
2023-05-10T01:57:37.396Z,67.31
2023-05-10T02:00:04.390Z,68.29
2023-05-10T02:02:38.355Z,66.81
2023-05-10T02:05:05.689Z,68.22
2023-05-10T02:07:40.917Z,66.50
2023-05-10T02:10:08.652Z,67.14
2023-05-10T02:12:36.189Z,66.87
2023-05-10T02:15:02.749Z,65.41
2023-05-10T02:20:18.917Z,63.85
2023-05-10T02:22:45.643Z,62.00
2023-05-10T02:25:15.122Z,63.95
2023-05-10T02:27:43.572Z,62.42
2023-05-10T02:30:10.840Z,64.15
2023-05-10T02:32:37.689Z,64.00
2023-05-10T02:35:04.499Z,64.38
2023-05-10T02:37:33.192Z,64.22
2023-05-10T02:40:00.034Z,63.76
2023-05-10T02:42:26.890Z,63.97
2023-05-10T02:44:53.697Z,62.46
2023-05-10T02:47:27.504Z,62.79
2023-05-10T02:49:57.300Z,63.33
2023-05-10T02:52:24.624Z,65.61
2023-05-10T02:54:51.478Z,65.70
2023-05-10T02:57:18.814Z,66.33
2023-05-10T02:59:46.166Z,67.84
2023-05-10T03:02:12.831Z,68.69
2023-05-10T03:04:41.569Z,68.55
2023-05-10T03:07:10.485Z,69.23
2023-05-10T03:09:39.064Z,67.88
2023-05-10T03:12:08.996Z,68.92
2023-05-10T03:14:39.043Z,68.05
2023-05-10T03:17:06.545Z,67.74
2023-05-10T03:19:36.468Z,67.45
2023-05-10T03:24:34.356Z,65.16
2023-05-10T03:27:01.470Z,64.59
2023-05-10T03:29:28.200Z,63.84
2023-05-10T03:31:55.103Z,63.23
2023-05-10T03:34:22.104Z,61.99
2023-05-10T03:36:48.933Z,60.65
2023-05-10T03:39:16.734Z,60.30
2023-05-10T03:41:43.283Z,59.58
2023-05-10T03:44:10.165Z,59.58
2023-05-10T03:46:36.752Z,60.76
2023-05-10T03:49:03.577Z,62.13
2023-05-10T03:51:30.453Z,62.72
2023-05-10T03:53:58.038Z,65.72
2023-05-10T03:56:27.861Z,67.36
2023-05-10T03:58:54.669Z,68.19
2023-05-10T04:01:28.672Z,70.26
2023-05-10T04:03:55.770Z,72.08
2023-05-10T04:06:22.438Z,70.55
2023-05-10T04:08:49.252Z,70.80
2023-05-10T04:11:16.777Z,69.00
2023-05-10T04:13:43.511Z,69.23
2023-05-10T04:16:10.011Z,70.57
2023-05-10T04:18:37.842Z,69.73
2023-05-10T04:21:04.432Z,70.36
2023-05-10T04:23:31.065Z,70.26
2023-05-10T04:25:57.543Z,68.99
2023-05-10T04:28:26.091Z,67.03
2023-05-10T04:30:53.735Z,65.44
2023-05-10T04:33:20.314Z,66.32
2023-05-10T04:35:47.081Z,66.23
2023-05-10T04:38:14.704Z,63.79
2023-05-10T04:40:41.223Z,62.83
2023-05-10T04:43:08.548Z,62.53
2023-05-10T04:45:37.625Z,61.04
2023-05-10T04:48:04.167Z,63.85
2023-05-10T04:50:31.015Z,63.72
2023-05-10T04:52:57.799Z,62.14
2023-05-10T04:55:26.249Z,60.77
2023-05-10T05:00:42.990Z,60.54
2023-05-10T05:03:09.684Z,60.25
2023-05-10T05:05:36.373Z,59.00
2023-05-10T05:08:04.011Z,60.77
2023-05-10T05:10:30.990Z,59.92
2023-05-10T05:12:58.527Z,59.57
2023-05-10T05:15:25.498Z,59.77
2023-05-10T05:17:52.120Z,58.85
2023-05-10T05:20:20.072Z,57.71
2023-05-10T05:22:46.709Z,58.11
2023-05-10T05:25:15.477Z,57.79
2023-05-10T05:27:42.838Z,56.94
2023-05-10T05:30:09.624Z,56.72
2023-05-10T05:32:36.229Z,55.87
2023-05-10T05:35:03.814Z,55.40
2023-05-10T05:37:30.434Z,56.81
2023-05-10T05:39:57.084Z,56.95
2023-05-10T05:42:24.374Z,55.27
2023-05-10T05:44:55.014Z,55.55
2023-05-10T05:47:25.005Z,55.53
2023-05-10T05:49:53.763Z,54.79
2023-05-10T05:52:20.591Z,55.52
2023-05-10T05:54:47.251Z,54.59
2023-05-10T05:57:14.575Z,53.38
2023-05-10T05:59:41.917Z,52.63
2023-05-10T06:02:08.492Z,53.89
2023-05-10T06:04:35.854Z,52.87
2023-05-10T06:07:04.796Z,53.07
2023-05-10T06:09:31.374Z,53.35
2023-05-10T06:12:01.935Z,53.06
2023-05-10T06:14:28.437Z,52.92
2023-05-10T06:16:55.566Z,52.11
2023-05-10T06:19:26.717Z,52.50
2023-05-10T06:21:54.588Z,51.42
2023-05-10T06:24:21.169Z,51.03
2023-05-10T06:26:49.416Z,50.99
2023-05-10T06:29:17.222Z,51.67
2023-05-10T06:31:44.619Z,51.48
2023-05-10T06:34:11.208Z,51.42
2023-05-10T06:36:42.705Z,51.29
2023-05-10T06:39:10.395Z,48.25
2023-05-10T06:41:37.730Z,47.34
2023-05-10T06:44:05.110Z,46.04
2023-05-10T06:46:32.405Z,44.50
2023-05-10T06:49:03.545Z,42.79
2023-05-10T06:51:30.375Z,45.39
2023-05-10T06:53:58.004Z,43.85
2023-05-10T06:56:25.853Z,41.93
2023-05-10T06:58:52.680Z,38.60
2023-05-10T07:01:19.863Z,38.36
2023-05-10T07:03:46.888Z,38.50
2023-05-10T07:06:29.330Z,41.30
2023-05-10T07:11:52.226Z,42.76
2023-05-10T07:14:19.580Z,42.79
2023-05-10T07:16:54.625Z,41.68
2023-05-10T07:19:24.986Z,39.79
2023-05-10T07:21:51.607Z,39.91
2023-05-10T07:24:18.662Z,40.15
2023-05-10T07:26:52.898Z,41.01
2023-05-10T07:29:20.344Z,42.68
2023-05-10T07:31:51.262Z,45.32
2023-05-10T07:34:23.701Z,46.97
2023-05-10T07:36:50.357Z,45.91
2023-05-10T07:39:24.687Z,45.82
2023-05-10T07:42:01.351Z,47.07
2023-05-10T07:44:28.513Z,48.35
2023-05-10T07:46:55.667Z,47.99
2023-05-10T07:49:22.461Z,47.94
2023-05-10T07:51:49.346Z,45.63
2023-05-10T07:54:15.887Z,46.31
2023-05-10T07:56:42.698Z,47.26
2023-05-10T07:59:12.877Z,47.35
2023-05-10T08:01:39.636Z,50.04
2023-05-10T08:04:06.291Z,50.00
2023-05-10T08:06:35.010Z,50.58
2023-05-10T08:09:02.614Z,48.69
2023-05-10T08:11:29.955Z,50.12
2023-05-10T08:13:56.539Z,50.23
2023-05-10T08:16:23.245Z,48.06
2023-05-10T08:18:49.862Z,48.37
2023-05-10T08:21:16.398Z,47.58
2023-05-10T08:23:45.355Z,47.15
2023-05-10T08:26:11.907Z,45.77
2023-05-10T08:28:38.486Z,44.54
2023-05-10T08:31:05.406Z,43.53
2023-05-10T08:33:32.129Z,43.84
2023-05-10T08:35:58.940Z,42.46
2023-05-10T08:38:27.327Z,42.97
2023-05-10T08:40:57.002Z,42.88
2023-05-10T08:43:23.778Z,41.80
2023-05-10T08:45:50.539Z,42.32
2023-05-10T08:48:17.371Z,42.57
2023-05-10T08:50:44.209Z,40.97
2023-05-10T08:53:11.038Z,41.80
2023-05-10T08:55:37.877Z,42.10
2023-05-10T08:58:05.242Z,42.34
2023-05-10T09:00:33.114Z,42.12
2023-05-10T09:03:02.152Z,42.43
2023-05-10T09:05:28.928Z,41.80
2023-05-10T09:07:55.485Z,42.92
2023-05-10T09:10:22.305Z,43.76
2023-05-10T09:12:49.733Z,45.19
2023-05-10T09:15:16.866Z,45.82
2023-05-10T09:17:44.370Z,45.32
2023-05-10T09:20:12.867Z,45.54
2023-05-10T09:22:42.363Z,46.40
2023-05-10T09:25:09.205Z,45.81
2023-05-10T09:27:40.377Z,46.53
2023-05-10T09:30:07.869Z,45.07
2023-05-10T09:32:34.951Z,42.33
2023-05-10T09:35:01.481Z,40.89
2023-05-10T09:37:28.081Z,40.10
2023-05-10T09:39:54.729Z,39.69
2023-05-10T09:42:22.646Z,39.63
2023-05-10T09:44:49.167Z,40.00
2023-05-10T09:47:15.924Z,41.44
2023-05-10T09:49:42.640Z,41.02
2023-05-10T09:52:10.094Z,38.93
2023-05-10T09:54:37.063Z,37.72
2023-05-10T09:57:03.890Z,39.30
2023-05-10T09:59:30.741Z,40.40
2023-05-10T10:01:57.619Z,40.97
2023-05-10T10:04:24.631Z,41.49
2023-05-10T10:06:51.418Z,41.43
2023-05-10T10:09:20.240Z,41.12
2023-05-10T10:11:49.165Z,41.29
2023-05-10T10:14:18.679Z,42.80
2023-05-10T10:17:05.566Z,43.15
2023-05-10T10:19:34.047Z,42.65
2023-05-10T10:22:00.613Z,43.53
2023-05-10T10:24:28.168Z,43.74
2023-05-10T10:26:55.001Z,43.52
2023-05-10T10:29:22.420Z,42.58
2023-05-10T10:31:49.144Z,41.59
2023-05-10T10:34:17.187Z,41.79
2023-05-10T10:36:46.103Z,42.43
2023-05-10T10:39:13.446Z,43.97
2023-05-10T10:41:43.864Z,41.47
2023-05-10T10:44:10.649Z,41.50
2023-05-10T10:46:38.132Z,42.16
2023-05-10T10:49:04.740Z,41.53
2023-05-10T10:51:32.475Z,41.39
2023-05-10T10:53:59.306Z,41.36
2023-05-10T10:56:26.033Z,41.94
2023-05-10T10:58:52.694Z,41.38
2023-05-10T11:01:19.636Z,40.81
2023-05-10T11:03:47.193Z,41.26
2023-05-10T11:06:15.312Z,42.30
2023-05-10T11:08:42.313Z,42.05
2023-05-10T11:11:08.893Z,42.07
2023-05-10T11:13:35.822Z,41.75
2023-05-10T11:16:02.401Z,42.44
2023-05-10T11:18:29.617Z,41.43
2023-05-10T11:20:57.329Z,41.67
2023-05-10T11:23:23.876Z,42.29
2023-05-10T11:25:57.884Z,43.56
2023-05-10T11:28:25.489Z,42.31
2023-05-10T11:30:52.360Z,41.14
2023-05-10T11:33:25.220Z,40.99
2023-05-10T11:35:53.741Z,39.54
2023-05-10T11:38:20.804Z,39.94
2023-05-10T11:40:48.414Z,40.37
2023-05-10T11:43:15.615Z,39.34
2023-05-10T11:45:43.670Z,39.21
2023-05-10T11:48:11.796Z,38.50
2023-05-10T11:50:39.295Z,38.29
2023-05-10T11:53:06.141Z,38.46
2023-05-10T11:55:32.676Z,37.91
2023-05-10T11:58:00.274Z,38.86
2023-05-10T12:00:26.965Z,38.50
2023-05-10T12:02:53.804Z,38.53
2023-05-10T12:05:21.176Z,37.27
2023-05-10T12:07:47.730Z,38.57
2023-05-10T12:10:18.491Z,39.03
2023-05-10T12:12:49.675Z,39.84
2023-05-10T12:15:20.008Z,40.17
2023-05-10T12:17:48.608Z,39.33
2023-05-10T12:20:18.270Z,39.30
2023-05-10T12:22:45.007Z,40.03
2023-05-10T12:25:13.405Z,39.47
2023-05-10T12:27:40.112Z,39.33
2023-05-10T12:30:10.307Z,38.69
2023-05-10T12:32:37.535Z,38.07
2023-05-10T12:35:04.441Z,38.04
2023-05-10T12:37:31.784Z,38.33
2023-05-10T12:39:59.328Z,36.45
2023-05-10T12:42:25.886Z,36.99
2023-05-10T12:44:53.128Z,37.89
2023-05-10T12:47:20.446Z,38.64
2023-05-10T12:49:48.058Z,39.21
2023-05-10T12:52:14.662Z,40.77
2023-05-10T12:54:41.967Z,40.65
2023-05-10T12:57:11.812Z,40.67
2023-05-10T12:59:48.093Z,38.57
2023-05-10T13:02:14.551Z,37.92
2023-05-10T13:04:42.167Z,36.79
2023-05-10T13:07:09.638Z,37.04
2023-05-10T13:09:40.125Z,36.88
2023-05-10T13:12:10.419Z,37.46
2023-05-10T13:14:40.052Z,36.67
2023-05-10T13:17:06.896Z,38.02
2023-05-10T13:19:35.224Z,38.27
2023-05-10T13:22:02.826Z,40.22
2023-05-10T13:24:30.229Z,40.23
2023-05-10T13:26:57.059Z,41.13
2023-05-10T13:29:26.207Z,41.22
2023-05-10T13:31:53.707Z,40.57
2023-05-10T13:34:20.230Z,40.97
2023-05-10T13:36:50.557Z,40.44
2023-05-10T13:39:17.382Z,40.51
2023-05-10T13:41:44.921Z,40.07
2023-05-10T13:44:11.779Z,40.09
2023-05-10T13:46:38.389Z,41.61
2023-05-10T13:49:04.923Z,41.43
2023-05-10T13:51:31.773Z,40.50
2023-05-10T13:53:58.606Z,39.18
2023-05-10T13:56:25.203Z,39.25
2023-05-10T13:58:52.046Z,40.03
2023-05-10T14:01:19.632Z,41.90
2023-05-10T14:03:46.281Z,40.25
2023-05-10T14:06:12.973Z,39.37
2023-05-10T14:08:39.757Z,38.14
2023-05-10T14:11:08.360Z,37.65
2023-05-10T14:13:35.018Z,40.52
2023-05-10T14:16:05.870Z,40.10
2023-05-10T14:18:32.699Z,41.14
2023-05-10T14:20:59.979Z,41.54
2023-05-10T14:23:26.814Z,40.72
2023-05-10T14:25:53.698Z,40.87
2023-05-10T14:28:21.658Z,41.57
2023-05-10T14:30:49.659Z,41.23
2023-05-10T14:33:18.671Z,41.03
2023-05-10T14:35:45.277Z,41.09
2023-05-10T14:38:12.118Z,40.60
2023-05-10T14:40:40.231Z,40.58
2023-05-10T14:43:07.102Z,40.32
2023-05-10T14:45:34.116Z,40.95
2023-05-10T14:48:01.448Z,40.44
2023-05-10T14:52:59.144Z,40.05
2023-05-10T14:55:25.971Z,39.91
2023-05-10T14:57:52.755Z,40.37
2023-05-10T15:00:20.229Z,41.35
2023-05-10T15:02:49.709Z,42.10
2023-05-10T15:05:26.139Z,41.22
2023-05-10T15:07:53.957Z,42.65
2023-05-10T15:13:07.876Z,40.89
2023-05-10T15:15:35.640Z,40.84
2023-05-10T15:18:02.217Z,40.72
2023-05-10T15:20:33.041Z,40.83
2023-05-10T15:23:01.549Z,41.24
2023-05-10T15:25:28.425Z,40.75
2023-05-10T15:27:58.020Z,40.95
2023-05-10T15:30:26.268Z,39.37
2023-05-10T15:32:53.221Z,39.95
2023-05-10T15:35:24.089Z,38.58
2023-05-10T15:37:51.579Z,38.69
2023-05-10T15:40:19.247Z,38.51
2023-05-10T15:42:48.979Z,38.77
2023-05-10T15:45:16.484Z,38.90
2023-05-10T15:47:43.699Z,38.33
2023-05-10T15:50:10.731Z,38.84
2023-05-10T15:52:37.474Z,39.68
2023-05-10T15:55:04.961Z,39.39
2023-05-10T15:57:32.021Z,40.51
2023-05-10T15:59:58.529Z,41.33
2023-05-10T16:02:28.331Z,41.41
2023-05-10T16:05:02.438Z,40.61
2023-05-10T16:07:31.029Z,41.38
2023-05-10T16:09:58.466Z,40.55
2023-05-10T16:12:25.637Z,41.21
2023-05-10T16:14:52.805Z,39.75
2023-05-10T16:17:19.666Z,39.49
2023-05-10T16:19:47.454Z,38.74
2023-05-10T16:22:14.601Z,38.97
2023-05-10T16:24:43.683Z,38.71
2023-05-10T16:27:11.238Z,40.11
2023-05-10T16:29:42.548Z,40.08
2023-05-10T16:32:09.360Z,40.78
2023-05-10T16:34:38.791Z,40.80
2023-05-10T16:37:06.264Z,40.41
2023-05-10T16:39:35.024Z,39.83
2023-05-10T16:42:04.457Z,38.74
2023-05-10T16:47:01.870Z,38.45
2023-05-10T16:49:30.958Z,38.08
2023-05-10T16:51:59.014Z,37.22
2023-05-10T16:54:25.600Z,38.07
2023-05-10T16:56:53.341Z,38.53
2023-05-10T16:59:20.705Z,38.03
2023-05-10T17:01:48.046Z,37.91
2023-05-10T17:04:14.763Z,37.73
2023-05-10T17:06:42.422Z,38.62
2023-05-10T17:09:11.096Z,38.74
2023-05-10T17:11:38.949Z,38.71
2023-05-10T17:14:05.756Z,38.28
2023-05-10T17:22:02.297Z,38.73
2023-05-10T17:24:28.905Z,40.12
2023-05-10T17:26:55.643Z,40.43
2023-05-10T17:29:23.475Z,40.18
2023-05-10T17:31:50.114Z,39.66
2023-05-10T17:34:16.960Z,40.04
2023-05-10T17:36:43.803Z,40.52
2023-05-10T17:39:11.000Z,40.13
2023-05-10T17:41:37.540Z,40.28
2023-05-10T17:44:04.343Z,42.11
2023-05-10T17:46:30.992Z,41.73
2023-05-10T17:48:57.812Z,41.07
2023-05-10T17:51:24.433Z,40.53
2023-05-10T17:53:51.333Z,40.95
2023-05-10T17:56:18.812Z,40.58
2023-05-10T17:58:49.115Z,40.92
2023-05-10T18:01:15.849Z,41.35
2023-05-10T18:03:42.507Z,41.25
2023-05-10T18:06:09.495Z,41.60
2023-05-10T18:08:36.117Z,40.93
2023-05-10T18:11:02.751Z,41.87
2023-05-10T18:13:31.337Z,42.08
2023-05-10T18:18:32.290Z,42.60
2023-05-10T18:20:59.261Z,42.88
2023-05-10T18:23:25.942Z,42.48
2023-05-10T18:25:53.610Z,41.79
2023-05-10T18:28:20.511Z,43.10
2023-05-10T18:30:48.710Z,42.38
2023-05-10T18:33:25.783Z,42.82
2023-05-10T18:39:31.481Z,42.59
2023-05-10T18:41:59.109Z,42.51
2023-05-10T18:44:26.057Z,42.53
2023-05-10T18:46:54.109Z,42.75
2023-05-10T18:49:21.132Z,42.79
2023-05-10T18:51:48.173Z,43.80
2023-05-10T18:54:14.769Z,44.08
2023-05-10T18:56:41.351Z,44.56
2023-05-10T18:59:08.449Z,44.12
2023-05-10T19:01:35.143Z,45.07
2023-05-10T19:04:02.132Z,44.91
2023-05-10T19:06:29.078Z,46.28
2023-05-10T19:08:55.624Z,45.87
2023-05-10T19:11:23.051Z,46.75
2023-05-10T19:13:50.581Z,46.65
2023-05-10T19:16:20.092Z,47.28
2023-05-10T19:18:47.367Z,46.14
2023-05-10T19:21:16.148Z,46.80
2023-05-10T19:23:48.426Z,47.16
2023-05-10T19:26:15.246Z,47.25
2023-05-10T19:28:42.118Z,46.52
2023-05-10T19:31:09.340Z,45.85
2023-05-10T19:33:38.768Z,45.54
2023-05-10T19:36:05.780Z,45.42
2023-05-10T19:38:32.910Z,44.86
2023-05-10T19:41:00.318Z,44.53
2023-05-10T19:43:27.310Z,45.07
2023-05-10T19:45:55.532Z,44.80
2023-05-10T19:48:36.350Z,44.56
2023-05-10T19:51:07.556Z,43.78
2023-05-10T19:53:36.536Z,44.96
2023-05-10T19:56:03.570Z,42.92
2023-05-10T19:58:30.722Z,42.28
2023-05-10T20:00:59.011Z,42.73
2023-05-10T20:03:26.686Z,41.78
2023-05-10T20:05:55.553Z,41.57
2023-05-10T20:08:24.548Z,40.52
2023-05-10T20:10:53.494Z,39.93
2023-05-10T20:13:20.512Z,40.24
2023-05-10T20:15:47.635Z,40.28
2023-05-10T20:18:14.442Z,40.02
2023-05-10T20:20:41.594Z,39.94
2023-05-10T20:23:09.640Z,39.80
2023-05-10T20:25:36.270Z,41.85
2023-05-10T20:28:03.703Z,42.57
2023-05-10T20:30:30.491Z,42.88
2023-05-10T20:32:59.639Z,44.05
2023-05-10T20:35:26.420Z,45.48
2023-05-10T20:37:53.053Z,46.58
2023-05-10T20:43:13.796Z,49.47
2023-05-10T20:45:40.445Z,47.53
2023-05-10T20:48:08.039Z,48.55
2023-05-10T20:53:26.269Z,49.09
2023-05-10T20:55:53.190Z,50.50
2023-05-10T20:58:19.774Z,51.90
2023-05-10T21:00:46.813Z,49.72
2023-05-10T21:03:14.438Z,50.42
2023-05-10T21:05:41.260Z,49.35
2023-05-10T21:08:08.101Z,51.74
2023-05-10T21:10:34.651Z,51.49
2023-05-10T21:13:02.214Z,53.29
2023-05-10T21:15:28.815Z,52.71
2023-05-10T21:17:55.676Z,50.85
2023-05-10T21:20:22.494Z,48.70
2023-05-10T21:22:49.247Z,47.80
2023-05-10T21:25:16.786Z,47.59
2023-05-10T21:27:43.483Z,47.44
2023-05-10T21:30:11.060Z,48.18
2023-05-10T21:32:39.437Z,50.17
2023-05-10T21:35:06.354Z,49.70
2023-05-10T21:37:33.294Z,49.11
2023-05-10T21:40:00.067Z,48.49
2023-05-10T21:42:26.979Z,48.25
2023-05-10T21:44:53.494Z,49.06
2023-05-10T21:47:19.940Z,48.24
2023-05-10T21:49:47.140Z,48.01
2023-05-10T21:52:13.958Z,46.74
2023-05-10T21:54:41.069Z,48.91
2023-05-10T21:57:07.614Z,47.70
2023-05-10T21:59:34.252Z,47.63
2023-05-10T22:02:10.185Z,47.94
2023-05-10T22:04:36.795Z,48.17
2023-05-10T22:07:04.126Z,49.24
2023-05-10T22:09:30.678Z,49.64
2023-05-10T22:11:57.195Z,49.03
2023-05-10T22:14:23.697Z,48.86
2023-05-10T22:19:35.437Z,48.35
2023-05-10T22:22:02.200Z,48.85
2023-05-10T22:24:29.747Z,48.36
2023-05-10T22:26:56.680Z,47.70
2023-05-10T22:29:23.126Z,47.22
2023-05-10T22:31:49.984Z,47.77
2023-05-10T22:34:16.763Z,46.91
2023-05-10T22:36:43.258Z,47.10
2023-05-10T22:39:10.402Z,46.69
2023-05-10T22:41:39.997Z,47.22
2023-05-10T22:44:09.384Z,47.81
2023-05-10T22:46:36.653Z,47.96
2023-05-10T22:49:03.220Z,47.21
2023-05-10T22:51:29.718Z,46.96
2023-05-10T22:53:59.505Z,47.16
2023-05-10T22:59:11.420Z,46.94
2023-05-10T23:01:38.557Z,48.35
2023-05-10T23:04:05.060Z,50.09
2023-05-10T23:06:31.572Z,50.55
2023-05-10T23:08:58.096Z,50.60
2023-05-10T23:11:25.024Z,49.21
2023-05-10T23:16:48.709Z,47.57
2023-05-10T23:19:16.078Z,47.58
2023-05-10T23:21:42.611Z,46.89
2023-05-10T23:24:09.401Z,46.18
2023-05-10T23:26:37.870Z,45.97
2023-05-10T23:29:06.186Z,46.20
2023-05-10T23:31:44.278Z,46.18
2023-05-10T23:34:10.768Z,46.01
2023-05-10T23:36:40.149Z,45.80
2023-05-10T23:39:06.734Z,46.36
2023-05-10T23:41:33.511Z,46.58
2023-05-10T23:44:00.033Z,46.43
2023-05-10T23:46:29.202Z,46.05
2023-05-10T23:48:55.969Z,45.72
2023-05-10T23:51:23.307Z,46.15
2023-05-10T23:53:50.134Z,45.71
2023-05-10T23:56:16.913Z,45.37
